createdAt,value
2023-02-11T00:02:13.953Z,21.15
2023-02-11T00:04:41.664Z,26.65
2023-02-11T00:07:09.313Z,30.00
2023-02-11T00:09:38.291Z,28.33
2023-02-11T00:12:06.009Z,23.65
2023-02-11T00:14:33.603Z,28.55
2023-02-11T00:17:01.303Z,28.98
2023-02-11T00:19:28.910Z,24.15
2023-02-11T00:21:56.578Z,27.40
2023-02-11T00:24:24.236Z,27.77
2023-02-11T00:26:51.878Z,25.98
2023-02-11T00:29:19.493Z,29.48
2023-02-11T00:31:47.300Z,25.55
2023-02-11T00:34:15.055Z,26.90
2023-02-11T00:36:42.792Z,23.58
2023-02-11T00:39:10.695Z,27.27
2023-02-11T00:41:38.285Z,31.95
2023-02-11T00:44:05.991Z,24.38
2023-02-11T00:46:33.782Z,29.30
2023-02-11T00:49:02.374Z,26.02
2023-02-11T00:51:30.108Z,26.27
2023-02-11T00:53:57.735Z,27.00
2023-02-11T00:56:25.408Z,28.33
2023-02-11T00:58:54.041Z,34.28
2023-02-11T01:01:21.731Z,30.10
2023-02-11T01:03:49.397Z,28.02
2023-02-11T01:06:17.105Z,25.70
2023-02-11T01:08:44.759Z,28.52
2023-02-11T01:11:13.508Z,29.20
2023-02-11T01:13:41.153Z,26.20
2023-02-11T01:16:09.761Z,27.60
2023-02-11T01:18:37.435Z,29.17
2023-02-11T01:21:05.150Z,27.65
2023-02-11T01:23:32.779Z,25.98
2023-02-11T01:26:00.557Z,27.73
2023-02-11T01:28:31.041Z,27.58
2023-02-11T01:31:01.760Z,26.58
2023-02-11T01:33:29.635Z,25.48
2023-02-11T01:36:00.539Z,28.10
2023-02-11T01:41:07.521Z,31.33
2023-02-11T01:43:37.475Z,25.95
2023-02-11T01:46:14.044Z,30.80
2023-02-11T01:48:43.437Z,30.63
2023-02-11T01:51:14.252Z,26.95
2023-02-11T01:54:01.129Z,28.33
2023-02-11T01:57:04.975Z,30.40
2023-02-11T01:59:39.042Z,28.45
2023-02-11T02:02:09.353Z,22.98
2023-02-11T02:04:40.799Z,36.10
2023-02-11T02:07:20.744Z,29.95
2023-02-11T02:09:52.713Z,29.73
2023-02-11T02:12:20.360Z,27.05
2023-02-11T02:14:47.972Z,26.27
2023-02-11T02:17:25.746Z,25.70
2023-02-11T02:20:16.621Z,25.20
2023-02-11T02:22:53.460Z,31.67
2023-02-11T02:25:29.134Z,31.67
2023-02-11T02:28:15.380Z,29.23
2023-02-11T02:30:43.148Z,28.92
2023-02-11T02:33:23.826Z,27.52
2023-02-11T02:35:59.148Z,30.42
2023-02-11T02:38:26.785Z,27.33
2023-02-11T02:40:57.688Z,26.30
2023-02-11T02:43:26.962Z,30.07
2023-02-11T02:45:54.831Z,25.42
2023-02-11T02:48:29.741Z,28.52
2023-02-11T02:51:20.384Z,25.77
2023-02-11T02:54:06.953Z,30.05
2023-02-11T02:56:44.638Z,27.45
2023-02-11T02:59:12.364Z,30.67
2023-02-11T03:01:43.009Z,29.80
2023-02-11T03:04:19.416Z,27.85
2023-02-11T03:07:10.361Z,27.33
2023-02-11T03:09:43.505Z,25.65
2023-02-11T03:12:12.141Z,28.23
2023-02-11T03:14:40.191Z,30.80
2023-02-11T03:17:09.517Z,29.42
2023-02-11T03:19:43.334Z,30.33
2023-02-11T03:22:25.993Z,27.90
2023-02-11T03:24:54.496Z,24.88
2023-02-11T03:27:26.703Z,25.65
2023-02-11T03:30:06.497Z,30.27
2023-02-11T03:32:39.012Z,29.23
2023-02-11T03:35:09.541Z,25.33
2023-02-11T03:37:43.053Z,24.38
2023-02-11T03:40:12.597Z,26.85
2023-02-11T03:43:00.402Z,32.45
2023-02-11T03:45:28.918Z,31.00
2023-02-11T03:47:58.968Z,28.48
2023-02-11T03:50:27.511Z,30.77
2023-02-11T03:52:55.850Z,30.38
2023-02-11T03:55:25.960Z,33.40
2023-02-11T03:57:53.587Z,27.83
2023-02-11T04:00:21.264Z,28.70
2023-02-11T04:02:48.957Z,27.08
2023-02-11T04:05:17.056Z,33.38
2023-02-11T04:07:44.742Z,34.08
2023-02-11T04:10:13.013Z,31.83
2023-02-11T04:12:40.608Z,36.17
2023-02-11T04:15:08.755Z,27.40
2023-02-11T04:17:36.494Z,33.92
2023-02-11T04:20:04.484Z,32.20
2023-02-11T04:22:32.364Z,31.85
2023-02-11T04:25:00.013Z,32.40
2023-02-11T04:27:27.656Z,32.20
2023-02-11T04:29:55.328Z,29.20
2023-02-11T04:32:22.995Z,37.45
2023-02-11T04:34:50.846Z,41.95
2023-02-11T04:37:18.740Z,32.90
2023-02-11T04:39:46.434Z,41.20
2023-02-11T04:42:14.221Z,44.58
2023-02-11T04:44:41.900Z,43.50
2023-02-11T04:47:09.582Z,39.13
2023-02-11T04:49:37.264Z,41.35
2023-02-11T04:52:05.239Z,46.75
2023-02-11T04:54:32.854Z,45.67
2023-02-11T04:57:00.483Z,40.30
2023-02-11T04:59:28.124Z,46.00
2023-02-11T05:01:55.920Z,50.80
2023-02-11T05:04:23.588Z,57.22
2023-02-11T05:06:51.372Z,62.70
2023-02-11T05:09:19.132Z,82.15
2023-02-11T05:11:46.735Z,96.22
2023-02-11T05:14:14.381Z,114.40
2023-02-11T05:16:42.112Z,109.28
2023-02-11T05:19:10.284Z,125.88
2023-02-11T05:21:37.850Z,157.63
2023-02-11T05:24:05.676Z,150.95
2023-02-11T05:26:33.439Z,155.07
2023-02-11T05:29:01.131Z,163.25
2023-02-11T05:31:28.800Z,178.23
2023-02-11T05:33:56.467Z,183.93
2023-02-11T05:36:24.122Z,184.35
2023-02-11T05:38:51.846Z,196.50
2023-02-11T05:41:19.777Z,201.63
2023-02-11T05:43:51.056Z,209.50
2023-02-11T05:46:18.710Z,204.43
2023-02-11T05:48:46.417Z,206.45
2023-02-11T05:51:14.006Z,232.15
2023-02-11T05:53:41.610Z,212.95
2023-02-11T05:56:10.453Z,202.73
2023-02-11T05:58:38.877Z,209.65
2023-02-11T06:01:06.538Z,207.88
2023-02-11T06:03:34.330Z,202.02
2023-02-11T06:06:01.984Z,210.98
2023-02-11T06:08:29.681Z,197.52
2023-02-11T06:10:57.315Z,174.15
2023-02-11T06:13:24.979Z,181.95
2023-02-11T06:16:02.277Z,175.88
2023-02-11T06:18:30.060Z,182.80
2023-02-11T06:20:57.658Z,185.88
2023-02-11T06:23:25.308Z,184.77
2023-02-11T06:25:53.503Z,176.52
2023-02-11T06:28:21.355Z,173.68
2023-02-11T06:30:49.267Z,176.65
2023-02-11T06:33:16.930Z,189.35
2023-02-11T06:35:44.540Z,167.90
2023-02-11T06:38:12.250Z,185.00
2023-02-11T06:40:39.968Z,197.00
2023-02-11T06:43:07.578Z,197.13
2023-02-11T06:45:35.172Z,194.52
2023-02-11T06:48:02.812Z,204.82
2023-02-11T06:50:30.478Z,206.13
2023-02-11T06:52:59.911Z,204.65
2023-02-11T06:55:27.669Z,217.93
2023-02-11T06:57:55.337Z,210.75
2023-02-11T07:00:22.958Z,212.98
2023-02-11T07:02:50.656Z,217.40
2023-02-11T07:05:18.383Z,209.20
2023-02-11T07:07:46.038Z,209.57
2023-02-11T07:10:13.912Z,222.80
2023-02-11T07:12:41.626Z,232.73
2023-02-11T07:15:09.462Z,210.13
2023-02-11T07:17:37.117Z,223.95
2023-02-11T07:20:04.926Z,219.95
2023-02-11T07:22:32.647Z,217.52
2023-02-11T07:25:00.278Z,213.32
2023-02-11T07:27:27.923Z,213.55
2023-02-11T07:29:55.549Z,221.38
2023-02-11T07:32:23.122Z,228.15
2023-02-11T07:34:50.806Z,206.30
2023-02-11T07:37:18.983Z,215.10
2023-02-11T07:39:46.671Z,226.63
2023-02-11T07:42:14.267Z,228.95
2023-02-11T07:44:42.130Z,221.80
2023-02-11T07:47:09.793Z,202.52
2023-02-11T07:49:37.444Z,210.18
2023-02-11T07:52:05.128Z,205.80
2023-02-11T07:54:32.805Z,205.40
2023-02-11T07:57:00.497Z,189.95
2023-02-11T07:59:28.188Z,180.10
2023-02-11T08:01:55.896Z,183.93
2023-02-11T08:04:23.746Z,209.30
2023-02-11T08:06:52.908Z,168.88
2023-02-11T08:09:20.528Z,153.32
2023-02-11T08:11:48.206Z,146.77
2023-02-11T08:14:15.861Z,168.77
2023-02-11T08:16:43.538Z,184.18
2023-02-11T08:19:12.657Z,187.73
2023-02-11T08:21:40.673Z,195.38
2023-02-11T08:24:08.663Z,196.85
2023-02-11T08:26:36.746Z,191.52
2023-02-11T08:29:07.628Z,198.13
2023-02-11T08:31:36.917Z,183.73
2023-02-11T08:34:04.948Z,174.13
2023-02-11T08:36:34.244Z,165.55
2023-02-11T08:39:18.103Z,145.35
2023-02-11T08:41:48.760Z,131.70
2023-02-11T08:44:17.123Z,117.75
2023-02-11T08:46:44.855Z,88.95
2023-02-11T08:49:12.688Z,84.43
2023-02-11T08:51:40.669Z,77.22
2023-02-11T08:54:09.887Z,73.00
2023-02-11T08:56:38.064Z,72.22
2023-02-11T08:59:06.229Z,71.03
2023-02-11T09:01:34.339Z,58.03
2023-02-11T09:04:02.038Z,55.72
2023-02-11T09:06:29.940Z,55.33
2023-02-11T09:08:58.333Z,58.53
2023-02-11T09:11:27.749Z,48.10
2023-02-11T09:13:55.530Z,50.60
2023-02-11T09:21:19.110Z,50.40
2023-02-11T09:23:47.896Z,43.28
2023-02-11T09:26:20.550Z,44.25
2023-02-11T09:31:18.007Z,42.95
2023-02-11T09:33:49.980Z,52.10
2023-02-11T09:36:18.952Z,44.67
2023-02-11T09:38:46.902Z,46.25
2023-02-11T09:41:34.839Z,44.67
2023-02-11T09:44:05.000Z,39.90
2023-02-11T09:46:35.268Z,43.30
2023-02-11T09:49:03.857Z,43.38
2023-02-11T09:51:46.432Z,43.60
2023-02-11T09:54:17.879Z,44.15
2023-02-11T09:56:45.518Z,42.03
2023-02-11T09:59:16.660Z,42.13
2023-02-11T10:01:48.248Z,42.33
2023-02-11T10:04:31.057Z,44.03
2023-02-11T10:07:03.032Z,46.92
2023-02-11T10:09:33.633Z,49.35
2023-02-11T10:12:01.198Z,48.78
2023-02-11T10:14:28.772Z,42.88
2023-02-11T10:17:22.799Z,43.83
2023-02-11T10:19:50.404Z,49.35
2023-02-11T10:22:18.333Z,47.10
2023-02-11T10:24:58.485Z,43.28
2023-02-11T10:27:34.052Z,42.08
2023-02-11T10:30:10.964Z,46.72
2023-02-11T10:32:50.264Z,35.65
2023-02-11T10:35:19.520Z,43.33
2023-02-11T10:37:47.157Z,41.90
2023-02-11T10:40:18.907Z,35.13
2023-02-11T10:45:24.773Z,38.60
2023-02-11T10:47:52.483Z,35.65
2023-02-11T10:50:21.970Z,39.10
2023-02-11T10:52:49.688Z,32.33
2023-02-11T10:55:20.895Z,35.58
2023-02-11T10:57:54.221Z,35.17
2023-02-11T11:00:27.816Z,38.95
2023-02-11T11:03:00.390Z,43.88
2023-02-11T11:05:31.091Z,35.58
2023-02-11T11:08:05.311Z,37.33
2023-02-11T11:10:43.646Z,44.78
2023-02-11T11:13:23.616Z,42.20
2023-02-11T11:16:09.534Z,35.78
2023-02-11T11:18:37.323Z,37.92
2023-02-11T11:21:13.382Z,32.53
2023-02-11T11:23:47.473Z,32.97
2023-02-11T11:26:16.260Z,39.15
2023-02-11T11:28:50.078Z,42.05
2023-02-11T11:31:19.946Z,38.00
2023-02-11T11:33:48.118Z,39.47
2023-02-11T11:36:18.016Z,40.10
2023-02-11T11:38:49.282Z,32.05
2023-02-11T11:41:18.341Z,40.80
2023-02-11T11:44:18.569Z,32.65
2023-02-11T11:46:47.025Z,31.73
2023-02-11T11:49:14.709Z,35.28
2023-02-11T11:51:46.179Z,39.22
2023-02-11T11:54:14.818Z,38.15
2023-02-11T11:56:45.792Z,36.42
2023-02-11T11:59:16.668Z,38.70
2023-02-11T12:01:47.336Z,36.75
2023-02-11T12:04:15.068Z,38.15
2023-02-11T12:06:45.775Z,42.42
2023-02-11T12:09:18.169Z,36.85
2023-02-11T12:11:48.936Z,36.40
2023-02-11T12:14:24.887Z,37.55
2023-02-11T12:17:04.608Z,37.70
2023-02-11T12:19:44.255Z,42.92
2023-02-11T12:22:13.248Z,39.28
2023-02-11T12:24:49.940Z,41.53
2023-02-11T12:27:22.738Z,39.33
2023-02-11T12:32:29.844Z,42.42
2023-02-11T12:35:06.772Z,43.38
2023-02-11T12:37:47.554Z,43.95
2023-02-11T12:40:18.184Z,43.92
2023-02-11T12:43:18.805Z,39.20
2023-02-11T12:45:50.804Z,41.22
2023-02-11T12:48:22.691Z,41.65
2023-02-11T12:50:50.626Z,37.08
2023-02-11T12:53:21.466Z,40.30
2023-02-11T12:55:51.738Z,43.75
2023-02-11T12:58:23.869Z,38.95
2023-02-11T13:01:06.325Z,41.78
2023-02-11T13:03:36.799Z,45.25
2023-02-11T13:06:08.577Z,38.63
2023-02-11T13:11:07.895Z,40.95
2023-02-11T13:16:07.791Z,39.60
2023-02-11T13:18:36.983Z,34.60
2023-02-11T13:21:17.815Z,37.05
2023-02-11T13:24:00.539Z,33.92
2023-02-11T13:26:40.716Z,37.05
2023-02-11T13:29:17.647Z,27.58
2023-02-11T13:31:54.402Z,31.85
2023-02-11T13:34:26.635Z,31.48
2023-02-11T13:36:55.646Z,27.25
2023-02-11T13:39:23.368Z,28.90
2023-02-11T13:41:52.914Z,31.48
2023-02-11T13:44:22.894Z,27.00
2023-02-11T13:46:53.941Z,27.67
2023-02-11T13:49:42.067Z,21.60
2023-02-11T13:52:22.970Z,24.30
2023-02-11T13:57:21.772Z,25.55
2023-02-11T13:59:52.390Z,30.52
2023-02-11T14:02:41.522Z,26.33
2023-02-11T14:05:27.655Z,22.67
2023-02-11T14:10:44.710Z,30.23
2023-02-11T14:15:40.977Z,27.00
2023-02-11T14:18:27.249Z,26.85
2023-02-11T14:21:07.492Z,26.25
2023-02-11T14:23:37.420Z,23.38
2023-02-11T14:26:20.415Z,25.73
2023-02-11T14:29:08.753Z,24.88
2023-02-11T14:31:44.564Z,21.92
2023-02-11T14:34:38.026Z,27.60
2023-02-11T14:37:20.937Z,22.55
2023-02-11T14:39:54.371Z,24.40
2023-02-11T14:42:26.561Z,25.70
2023-02-11T14:44:56.171Z,24.20
2023-02-11T14:47:30.577Z,22.27
2023-02-11T14:49:58.289Z,24.02
2023-02-11T14:52:30.670Z,23.75
2023-02-11T14:55:21.362Z,27.67
2023-02-11T14:57:51.122Z,29.40
2023-02-11T15:00:22.788Z,29.92
2023-02-11T15:02:50.615Z,30.83
2023-02-11T15:05:26.756Z,26.80
2023-02-11T15:07:55.642Z,33.15
2023-02-11T15:10:35.851Z,29.92
2023-02-11T15:13:04.263Z,28.98
2023-02-11T15:15:32.907Z,28.13
2023-02-11T15:18:01.896Z,31.02
2023-02-11T15:20:31.865Z,29.42
2023-02-11T15:23:03.900Z,34.35
2023-02-11T15:25:34.072Z,30.50
2023-02-11T15:28:01.989Z,30.90
2023-02-11T15:30:31.734Z,34.45
2023-02-11T15:33:00.773Z,34.20
2023-02-11T15:35:30.074Z,33.40
2023-02-11T15:37:59.201Z,31.90
2023-02-11T15:40:28.140Z,36.88
2023-02-11T15:42:58.358Z,34.22
2023-02-11T15:45:29.163Z,35.08
2023-02-11T15:47:58.557Z,39.08
2023-02-11T15:50:28.970Z,40.88
2023-02-11T15:52:58.176Z,37.88
2023-02-11T15:55:26.891Z,34.85
2023-02-11T15:58:12.842Z,34.22
2023-02-11T16:00:47.203Z,35.72
2023-02-11T16:03:22.183Z,38.03
2023-02-11T16:05:49.904Z,37.22
2023-02-11T16:08:24.497Z,37.65
2023-02-11T16:10:58.568Z,36.72
2023-02-11T16:13:33.675Z,37.50
2023-02-11T16:16:06.415Z,42.50
2023-02-11T16:18:39.987Z,36.65
2023-02-11T16:21:14.704Z,35.47
2023-02-11T16:23:42.600Z,33.58
2023-02-11T16:26:20.604Z,41.95
2023-02-11T16:28:48.372Z,38.78
2023-02-11T16:31:16.430Z,39.70
2023-02-11T16:33:44.189Z,41.08
2023-02-11T16:36:17.281Z,41.20
2023-02-11T16:38:44.938Z,38.92
2023-02-11T16:41:12.819Z,40.28
2023-02-11T16:43:40.560Z,38.42
2023-02-11T16:46:09.354Z,46.10
2023-02-11T16:48:38.428Z,41.25
2023-02-11T16:51:09.317Z,39.95
2023-02-11T16:53:37.072Z,40.33
2023-02-11T16:56:04.820Z,41.47
2023-02-11T16:58:32.435Z,39.15
2023-02-11T17:01:00.241Z,44.40
2023-02-11T17:03:30.089Z,40.42
2023-02-11T17:05:58.016Z,41.97
2023-02-11T17:08:25.656Z,43.80
2023-02-11T17:10:53.595Z,40.97
2023-02-11T17:13:21.331Z,42.40
2023-02-11T17:15:49.241Z,40.67
2023-02-11T17:18:16.922Z,46.58
2023-02-11T17:20:44.554Z,39.22
2023-02-11T17:23:12.184Z,41.03
2023-02-11T17:25:40.676Z,41.70
2023-02-11T17:28:09.427Z,46.22
2023-02-11T17:30:37.162Z,44.75
2023-02-11T17:33:04.784Z,37.85
2023-02-11T17:35:32.331Z,44.78
2023-02-11T17:38:01.439Z,41.47
2023-02-11T17:40:29.082Z,47.15
2023-02-11T17:42:56.655Z,45.78
2023-02-11T17:45:24.344Z,47.03
2023-02-11T17:47:52.301Z,45.42
2023-02-11T17:50:19.890Z,47.67
2023-02-11T17:52:47.455Z,49.55
2023-02-11T17:55:15.145Z,50.85
2023-02-11T17:57:42.772Z,49.25
2023-02-11T18:00:10.661Z,43.20
2023-02-11T18:02:41.047Z,53.10
2023-02-11T18:05:08.865Z,48.42
2023-02-11T18:07:36.512Z,47.42
2023-02-11T18:10:05.935Z,52.50
2023-02-11T18:12:33.631Z,49.05
2023-02-11T18:15:01.280Z,49.58
2023-02-11T18:17:29.002Z,48.00
2023-02-11T18:19:57.134Z,47.25
2023-02-11T18:22:25.452Z,50.67
2023-02-11T18:24:54.010Z,51.10
2023-02-11T18:27:22.178Z,58.40
2023-02-11T18:29:49.786Z,57.10
2023-02-11T18:32:17.571Z,51.17
2023-02-11T18:34:45.190Z,52.30
2023-02-11T18:37:14.276Z,54.05
2023-02-11T18:39:42.306Z,46.10
2023-02-11T18:42:10.272Z,51.63
2023-02-11T18:44:38.025Z,48.75
2023-02-11T18:47:05.628Z,52.45
2023-02-11T18:49:35.665Z,50.47
2023-02-11T18:52:03.938Z,55.03
2023-02-11T18:54:31.591Z,50.05
2023-02-11T18:56:59.209Z,58.85
2023-02-11T18:59:26.835Z,51.47
2023-02-11T19:01:54.478Z,55.13
2023-02-11T19:04:23.333Z,54.45
2023-02-11T19:06:51.036Z,60.58
2023-02-11T19:09:19.964Z,47.75
2023-02-11T19:11:47.729Z,61.38
2023-02-11T19:14:16.354Z,65.97
2023-02-11T19:16:45.020Z,64.45
2023-02-11T19:19:13.408Z,55.40
2023-02-11T19:21:42.739Z,55.65
2023-02-11T19:24:10.734Z,56.80
2023-02-11T19:26:38.540Z,59.17
2023-02-11T19:29:06.822Z,64.20
2023-02-11T19:31:35.324Z,68.30
2023-02-11T19:34:03.497Z,60.97
2023-02-11T19:36:31.357Z,66.13
2023-02-11T19:39:02.290Z,59.25
2023-02-11T19:41:30.213Z,64.53
2023-02-11T19:43:57.892Z,61.67
2023-02-11T19:46:27.891Z,60.08
2023-02-11T19:48:55.669Z,69.88
2023-02-11T19:51:23.584Z,64.95
2023-02-11T19:53:51.486Z,66.43
2023-02-11T19:56:20.848Z,64.55
2023-02-11T19:58:48.727Z,77.18
2023-02-11T20:01:17.953Z,67.47
2023-02-11T20:03:47.297Z,69.15
2023-02-11T20:06:17.203Z,64.35
2023-02-11T20:08:44.885Z,68.20
2023-02-11T20:11:13.768Z,68.25
2023-02-11T20:13:41.342Z,62.28
2023-02-11T20:16:10.676Z,64.70
2023-02-11T20:18:39.284Z,65.75
2023-02-11T20:21:08.198Z,65.97
2023-02-11T20:23:36.227Z,72.00
2023-02-11T20:26:07.832Z,69.30
2023-02-11T20:28:35.582Z,81.68
2023-02-11T20:31:03.939Z,72.88
2023-02-11T20:33:32.181Z,91.45
2023-02-11T20:36:01.274Z,96.78
2023-02-11T20:38:29.126Z,97.43
2023-02-11T20:41:03.472Z,99.68
2023-02-11T20:43:31.495Z,98.38
2023-02-11T20:46:02.838Z,92.45
2023-02-11T20:48:30.793Z,114.22
2023-02-11T20:51:08.290Z,105.25
2023-02-11T20:53:36.434Z,112.38
2023-02-11T20:56:04.699Z,109.53
2023-02-11T20:58:32.776Z,104.35
2023-02-11T21:01:13.986Z,105.45
2023-02-11T21:03:44.002Z,115.10
2023-02-11T21:06:12.321Z,118.65
2023-02-11T21:08:39.981Z,117.10
2023-02-11T21:11:11.011Z,109.70
2023-02-11T21:13:39.240Z,113.38
2023-02-11T21:16:07.376Z,116.50
2023-02-11T21:18:35.124Z,125.22
2023-02-11T21:21:06.015Z,128.02
2023-02-11T21:26:03.362Z,110.45
2023-02-11T21:28:31.045Z,110.53
2023-02-11T21:30:59.085Z,114.00
2023-02-11T21:33:27.621Z,117.95
2023-02-11T21:35:56.447Z,105.72
2023-02-11T21:38:24.777Z,113.15
2023-02-11T21:40:52.742Z,101.90
2023-02-11T21:43:20.456Z,109.63
2023-02-11T21:45:49.511Z,103.65
2023-02-11T21:48:17.847Z,102.28
2023-02-11T21:50:46.779Z,97.85
2023-02-11T21:53:14.862Z,93.35
2023-02-11T21:55:42.616Z,102.72
2023-02-11T21:58:11.531Z,81.97
2023-02-11T22:00:39.667Z,86.18
2023-02-11T22:03:07.528Z,86.18
2023-02-11T22:05:35.145Z,96.20
2023-02-11T22:08:02.865Z,81.88
2023-02-11T22:10:30.505Z,88.70
2023-02-11T22:12:58.108Z,86.93
2023-02-11T22:15:25.826Z,103.63
2023-02-11T22:17:53.496Z,79.35
2023-02-11T22:20:21.195Z,91.97
2023-02-11T22:22:49.138Z,86.47
2023-02-11T22:25:16.799Z,83.80
2023-02-11T22:27:44.556Z,81.25
2023-02-11T22:30:12.608Z,87.72
2023-02-11T22:32:42.444Z,88.95
2023-02-11T22:35:10.071Z,89.93
2023-02-11T22:37:37.847Z,91.55
2023-02-11T22:40:05.751Z,82.47
2023-02-11T22:42:33.388Z,93.80
2023-02-11T22:45:01.089Z,85.07
2023-02-11T22:47:28.707Z,78.32
2023-02-11T22:49:56.336Z,90.43
2023-02-11T22:52:23.928Z,90.82
2023-02-11T22:54:52.241Z,86.45
2023-02-11T22:57:19.879Z,92.20
2023-02-11T22:59:49.249Z,86.72
2023-02-11T23:02:17.066Z,97.35
2023-02-11T23:04:44.803Z,75.63
2023-02-11T23:07:13.295Z,92.07
2023-02-11T23:09:40.984Z,87.15
2023-02-11T23:12:08.621Z,91.85
2023-02-11T23:14:36.232Z,93.35
2023-02-11T23:17:03.885Z,80.82
2023-02-11T23:19:31.582Z,76.20
2023-02-11T23:21:59.177Z,72.50
2023-02-11T23:24:26.768Z,82.80
2023-02-11T23:26:54.518Z,73.35
2023-02-11T23:29:22.172Z,86.45
2023-02-11T23:31:50.104Z,75.65
2023-02-11T23:34:20.298Z,72.45
2023-02-11T23:36:47.919Z,73.30
2023-02-11T23:39:16.963Z,80.07
2023-02-11T23:41:45.143Z,76.43
2023-02-11T23:44:12.844Z,78.65
2023-02-11T23:46:40.489Z,72.15
2023-02-11T23:49:08.151Z,77.03
2023-02-11T23:51:35.757Z,66.55
2023-02-11T23:54:03.387Z,73.07
2023-02-11T23:56:31.096Z,58.22
2023-02-11T23:58:59.389Z,67.88
